Flight Track Log - Related Links

Times and Time Zones

All times are in EDT time to prevent confusion due to time zone crossing. See the ASQ4096 flight status page for this flight to view local times or setup timezone preferences in your user account.

Time Position Orientation Groundspeed Altitude Reporting Facility
EDT Latitude Longitude Course Direction KTS MPH feet Rate Location/Type
Mon 06:56:57 PM 29.9581 -95.3481 208° Southwest 149 171 800  Level Houston Center
Mon 06:57:40 PM 29.9325 -95.3639 236° Southwest 197 227 2,100 1,959 Climbing Houston Center
Mon 06:58:35 PM 29.8997 -95.4203 238° Southwest 228 262 4,000 1,897 Climbing Houston Center
Mon 06:59:37 PM 29.8644 -95.4861 243° Southwest 232 267 5,800 2,215 Climbing Houston Center
Mon 07:01:04 PM 29.8244 -95.5756 282° West 265 305 9,500 2,490 Climbing Houston Center
Mon 07:02:04 PM 29.8406 -95.6669 281° West 254 292 11,900 1,450 Climbing Houston Center
Mon 07:03:04 PM 29.8583 -95.7683 281° West 280 322 12,400 650 Climbing Houston Center
Mon 07:04:04 PM 29.8778 -95.8839 283° West 330 380 13,200 1,250 Climbing Houston Center
Mon 07:05:04 PM 29.9011 -96.0047 282° West 369 425 14,900 1,850 Climbing Houston Center
Mon 07:06:04 PM 29.9222 -96.1206 275° West 376 433 16,900 1,700 Climbing Houston Center
Mon 07:07:04 PM 29.9311 -96.2336 269° West 370 426 18,300 1,400 Climbing Houston Center
Mon 07:08:04 PM 29.9292 -96.3533 270° West 370 426 19,700 1,500 Climbing Houston Center
Mon 07:09:04 PM 29.9292 -96.4706 269° West 370 426 21,300 1,700 Climbing Houston Center
Mon 07:10:04 PM 29.9269 -96.5881 269° West 365 420 23,100 1,950 Climbing Houston Center
Mon 07:11:04 PM 29.9250 -96.6981 268° West 360 414 25,200 2,050 Climbing Houston Center
Mon 07:12:04 PM 29.9211 -96.8033 270° West 348 400 27,200 1,850 Climbing Houston Center
Mon 07:13:04 PM 29.9217 -96.9014 269° West 333 383 28,900 1,500 Climbing Houston Center
Mon 07:14:04 PM 29.9197 -97.0044 269° West 326 375 30,200 1,300 Climbing Houston Center
Mon 07:15:04 PM 29.9178 -97.1047 269° West 326 375 31,500 900 Climbing Houston Center
Mon 07:16:04 PM 29.9156 -97.2100 267° West 326 375 32,000 250 Climbing Houston Center
Mon 07:17:04 PM 29.9108 -97.3247 268° West 345 397 32,000  Level Houston Center
Mon 07:18:04 PM 29.9081 -97.4419 268° West 380 437 32,000  Level Houston Center
Mon 07:19:04 PM 29.9039 -97.5831 269° West 396 456 32,000  Level Houston Center
Mon 07:20:04 PM 29.9028 -97.7025 267° West 417 480 32,000  Level Houston Center
Mon 07:21:04 PM 29.8964 -97.8436 249° West 417 480 32,000  Level Houston Center
Mon 07:22:04 PM 29.8628 -97.9444 244° Southwest 392 451 32,000 400 Level Houston Center
Mon 07:23:04 PM 29.8133 -98.0633 244° Southwest 381 438 32,800 1,350 Climbing Houston Center
Mon 07:24:04 PM 29.7733 -98.1589 244° Southwest 374 430 34,700 1,600 Climbing Houston Center
Mon 07:25:04 PM 29.7308 -98.2614 269° West 345 397 36,000 650 Climbing Houston Center
Mon 07:26:04 PM 29.7300 -98.3617 266° West 333 383 36,000  Level Houston Center
Mon 07:27:04 PM 29.7225 -98.4736 220° Southwest 351 404 36,000  Level Houston Center
Mon 07:28:04 PM 29.6369 -98.5561 191° South 345 397 36,000  Level Houston Center
Mon 07:29:04 PM 29.5314 -98.5803 202° Southwest 351 404 36,000  Level Houston Center
Mon 07:30:04 PM 29.4225 -98.6303 230° Southwest 382 440 36,000  Level Houston Center
Mon 07:31:04 PM 29.3642 -98.7097 266° West 368 423 36,000  Level Houston Center
Mon 07:32:04 PM 29.3556 -98.8353 272° West 345 397 36,000  Level Houston Center
Mon 07:33:04 PM 29.3581 -98.9450 271° West 373 429 36,000  Level Houston Center
Mon 07:34:04 PM 29.3594 -99.0711 271° West 373 429 36,000  Level Houston Center
Mon 07:35:04 PM 29.3603 -99.1689 271° West 357 411 36,000  Level Houston Center
Mon 07:36:04 PM 29.3617 -99.2953 268° West 357 411 36,000 -50 Level Houston Center
Mon 07:37:04 PM 29.3578 -99.4019 272° West 364 419 35,900 -50 Descending Houston Center
Mon 07:38:04 PM 29.3614 -99.5214 270° West 369 425 35,900  Level Houston Center
Mon 07:39:04 PM 29.3606 -99.6425 270° West 379 436 35,900  Level Houston Center
Mon 07:40:04 PM 29.3614 -99.7664 270° West 389 448 35,900 50 Level Houston Center
Mon 07:41:04 PM 29.3606 -99.8878 272° West 389 448 36,000  Climbing Houston Center
Mon 07:42:04 PM 29.3633 -100.0094 269° West 389 448 35,900 -50 Descending Houston Center
Mon 07:43:04 PM 29.3622 -100.1283 270° West 382 440 35,900 50 Level Houston Center
Mon 07:44:04 PM 29.3617 -100.2378 269° West 370 426 36,000 50 Climbing Houston Center
Mon 07:45:04 PM 29.3606 -100.3542 269° West 363 418 36,000  Level Houston Center
Mon 07:46:04 PM 29.3594 -100.4683 271° West 370 426 36,000  Level Houston Center
Mon 07:47:04 PM 29.3614 -100.5969 268° West 370 426 36,000 -50 Level Houston Center
Mon 07:48:04 PM 29.3583 -100.7086 284° West 365 420 35,900  Descending Houston Center
Mon 07:49:04 PM 29.3836 -100.8272 299° West 370 426 36,000 50 Climbing Houston Center
Mon 07:50:04 PM 29.4367 -100.9367 299° West 375 432 36,000  Level Houston Center
Mon 07:51:04 PM 29.4914 -101.0511 299° West 395 455 36,000  Level Houston Center
Mon 07:52:04 PM 29.5461 -101.1633 299° West 410 472 36,000  Level Houston Center
Mon 07:53:04 PM 29.6006 -101.2781 298° West 410 472 36,000  Level Houston Center
Mon 07:54:04 PM 29.6547 -101.3953 298° West 410 472 36,000  Level Houston Center
Mon 07:55:04 PM 29.7086 -101.5125 299° West 415 478 36,000  Level Houston Center
Mon 07:56:04 PM 29.7647 -101.6300 299° West 415 478 36,000 -50 Level Houston Center
Mon 07:57:04 PM 29.8206 -101.7478 299° West 421 484 35,900  Descending Houston Center
Mon 07:58:04 PM 29.8761 -101.8656 298° West 415 478 36,000 36 Climbing Houston Center
Mon 07:59:49 PM 29.9711 -102.0731 298° West 425 489 36,000  Level Albuquerque Center
Mon 08:00:49 PM 30.0239 -102.1872 299° West 424 488 36,000  Level Albuquerque Center
Mon 08:01:49 PM 30.0789 -102.3039 298° West 419 482 36,000  Level Albuquerque Center
Mon 08:02:49 PM 30.1339 -102.4256 298° West 419 482 36,000  Level Albuquerque Center
Mon 08:03:49 PM 30.1889 -102.5472 298° West 424 488 36,000  Level Albuquerque Center
Mon 08:04:49 PM 30.2436 -102.6667 298° West 424 488 36,000  Level Albuquerque Center
Mon 08:05:49 PM 30.2981 -102.7836 297° West 424 488 36,000  Level Albuquerque Center
Mon 08:06:49 PM 30.3481 -102.8964 297° West 419 482 36,000  Level Albuquerque Center
Mon 08:07:49 PM 30.4003 -103.0139 299° West 419 482 36,000 -300 Level Albuquerque Center
Mon 08:08:49 PM 30.4544 -103.1292 296° West 414 476 35,400 -750 Descending Albuquerque Center
Mon 08:09:49 PM 30.5022 -103.2450 299° West 408 470 34,500 -700 Descending Albuquerque Center
Mon 08:10:49 PM 30.5603 -103.3650 297° West 408 470 34,000 -250 Descending Albuquerque Center
Mon 08:11:49 PM 30.6100 -103.4808 297° West 413 475 34,000  Level Albuquerque Center
Mon 08:12:49 PM 30.6639 -103.6014 296° West 413 475 34,000  Level Albuquerque Center
Mon 08:13:49 PM 30.7156 -103.7244 299° West 425 489 34,000  Level Albuquerque Center
Mon 08:14:49 PM 30.7733 -103.8478 298° West 425 489 34,000  Level Albuquerque Center
Mon 08:15:49 PM 30.8267 -103.9664 297° West 420 483 34,000  Level Albuquerque Center
Mon 08:16:49 PM 30.8800 -104.0875 297° West 420 483 34,000  Level Albuquerque Center
Mon 08:17:49 PM 30.9333 -104.2114 298° West 420 483 34,000  Level Albuquerque Center
Mon 08:18:49 PM 30.9864 -104.3281 297° West 420 483 34,000 -50 Level Albuquerque Center
Mon 08:19:49 PM 31.0394 -104.4472 297° West 420 483 33,900 -50 Descending Albuquerque Center
Mon 08:20:49 PM 31.0922 -104.5689 296° West 420 483 33,900 50 Level Albuquerque Center
Mon 08:21:49 PM 31.1431 -104.6883 296° West 420 483 34,000 -500 Climbing Albuquerque Center
Mon 08:22:49 PM 31.1933 -104.8081 297° West 420 483 32,900 -1,850 Descending Albuquerque Center
Mon 08:23:49 PM 31.2439 -104.9231 297° West 420 483 30,300 -2,850 Descending Albuquerque Center
Mon 08:24:49 PM 31.2939 -105.0383 296° West 408 470 27,200 -2,900 Descending Albuquerque Center
Mon 08:25:49 PM 31.3400 -105.1511 297° West 397 457 24,500 -2,600 Descending Albuquerque Center
Mon 08:26:49 PM 31.3900 -105.2642 297° West 392 451 22,000 -2,600 Descending Albuquerque Center
Mon 08:27:49 PM 31.4311 -105.3581 293° West 380 437 19,300 -2,880 Descending Albuquerque Center
Mon 08:28:29 PM 31.4594 -105.4375 319° Northwest 359 413 17,200 -2,337 Descending Albuquerque Center
Mon 08:29:24 PM 31.5294 -105.5092 322° Northwest 373 429 15,600 -1,552 Descending Albuquerque Center
Mon 08:30:25 PM 31.6119 -105.5853 320° Northwest 380 437 14,200 -1,537 Descending Albuquerque Center
Mon 08:31:25 PM 31.6858 -105.6594 294° West 349 402 12,500 -1,587 Descending Albuquerque Center
Mon 08:32:26 PM 31.7183 -105.7464 289° West 288 331 11,000 -1,323 Descending Albuquerque Center
Mon 08:33:32 PM 31.7444 -105.8339 285° West 246 283 9,700 -945 Descending Albuquerque Center
Mon 08:34:33 PM 31.7622 -105.9117 280° West 247 284 9,000 -984 Descending Albuquerque Center
Mon 08:35:34 PM 31.7736 -105.9894 273° West 239 275 7,700 -992 Descending Albuquerque Center
Mon 08:36:34 PM 31.7764 -106.0628 276° West 228 262 7,000 -378 Descending Albuquerque Center
Mon 08:37:41 PM 31.7833 -106.1383 279° West 220 253 6,900 -656 Descending Albuquerque Center
Mon 08:38:42 PM 31.7925 -106.2064 273° West 210 242 5,600 -744 Descending Albuquerque Center
Mon 08:39:42 PM 31.7950 -106.2675 274° West 172 198 5,400 -397 Descending Albuquerque Center
Mon 08:40:43 PM 31.7975 -106.3139 275° West 142 163 4,800 -626 Descending Albuquerque Center
Mon 08:41:37 PM 31.8000 -106.3506 275° West 133 153 4,200 -667 Descending Albuquerque Center

Login

Don't have an account? Register now (free) for customized features, flight alerts, and more!